createdAt,value
2019-04-19T00:00:03.323Z,12.2
2019-04-19T00:01:07.607Z,11.2
2019-04-19T00:02:08.027Z,11.7
2019-04-19T00:03:04.466Z,11.6
2019-04-19T00:04:08.775Z,11.5
2019-04-19T00:05:05.094Z,10.9
2019-04-19T00:06:11.200Z,11
2019-04-19T00:07:11.037Z,11.4
2019-04-19T00:08:19.267Z,11.5
2019-04-19T00:09:20.087Z,11
2019-04-19T00:10:19.629Z,11.2
2019-04-19T00:11:15.200Z,11
2019-04-19T00:12:17.895Z,11.2
2019-04-19T00:13:06.126Z,11.3
2019-04-19T00:14:04.391Z,11.6
2019-04-19T00:15:03.484Z,11.3
2019-04-19T00:16:03.106Z,11.2
2019-04-19T00:17:05.967Z,11
2019-04-19T00:18:07.748Z,11.1
2019-04-19T00:19:23.742Z,11.3
2019-04-19T00:20:25.376Z,10.9
2019-04-19T00:21:18.090Z,11.2
2019-04-19T00:22:22.847Z,10.8
2019-04-19T00:23:15.282Z,10.7
2019-04-19T00:24:04.382Z,11.4
2019-04-19T00:25:04.766Z,11.7
2019-04-19T00:26:04.486Z,11.3
2019-04-19T00:27:03.999Z,11.2
2019-04-19T00:28:04.263Z,11.6
2019-04-19T00:29:07.386Z,11.3
2019-04-19T00:30:17.784Z,11.8
2019-04-19T00:31:20.163Z,11.4
2019-04-19T00:32:20.248Z,11.2
2019-04-19T00:33:17.743Z,10.9
2019-04-19T00:34:06.183Z,11.2
2019-04-19T00:35:05.365Z,10.7
2019-04-19T00:36:05.148Z,11.5
2019-04-19T00:37:05.721Z,11.2
2019-04-19T00:38:08.176Z,10.5
2019-04-19T00:39:23.492Z,11.1
2019-04-19T00:40:19.777Z,10.6
2019-04-19T00:41:22.729Z,11.4
2019-04-19T00:43:15.824Z,10.9
2019-04-19T00:44:19.484Z,10.9
2019-04-19T00:45:22.468Z,11.2
2019-04-19T00:46:20.255Z,10.9
2019-04-19T00:47:23.036Z,11.1
2019-04-19T00:48:24.183Z,11.2
2019-04-19T00:49:15.743Z,10.7
2019-04-19T00:50:18.024Z,11.7
2019-04-19T00:51:17.156Z,11.3
2019-04-19T00:52:14.508Z,11
2019-04-19T00:53:18.085Z,11.2
2019-04-19T00:54:15.628Z,11
2019-04-19T00:55:13.528Z,10.9
2019-04-19T00:56:13.225Z,11.1
2019-04-19T00:57:14.593Z,11.2
2019-04-19T00:58:11.970Z,10.3
2019-04-19T00:59:08.452Z,11.3
2019-04-19T01:00:06.446Z,11.3
2019-04-19T01:01:11.905Z,11
2019-04-19T01:02:10.516Z,10.5
2019-04-19T01:03:06.256Z,11.1
2019-04-19T01:04:13.199Z,10.7
2019-04-19T01:05:09.506Z,10.6
2019-04-19T01:06:10.575Z,10.5
2019-04-19T01:07:06.858Z,10.9
2019-04-19T01:08:10.789Z,11.4
2019-04-19T01:09:18.955Z,11.1
2019-04-19T01:10:18.612Z,10.8
2019-04-19T01:11:17.866Z,10.8
2019-04-19T01:12:17.146Z,11.3
2019-04-19T01:13:15.474Z,10.5
2019-04-19T01:14:16.878Z,11.8
2019-04-19T01:15:16.384Z,12.3
2019-04-19T01:16:15.645Z,11.5
2019-04-19T01:17:19.209Z,11.8
2019-04-19T01:18:20.105Z,13.6
2019-04-19T01:19:09.613Z,13.9
2019-04-19T01:20:07.387Z,12.6
2019-04-19T01:21:06.913Z,11.2
2019-04-19T01:22:10.248Z,11.5
2019-04-19T01:23:10.637Z,11.4
2019-04-19T01:24:06.763Z,11.3
2019-04-19T01:25:10.226Z,10.8
2019-04-19T01:26:10.069Z,11.6
2019-04-19T01:27:06.849Z,11.4
2019-04-19T01:28:11.314Z,11.1
2019-04-19T01:29:09.356Z,11.4
2019-04-19T01:30:06.288Z,11.7
2019-04-19T01:31:09.804Z,11.4
2019-04-19T01:32:10.234Z,11.2
2019-04-19T01:33:07.050Z,10.7
2019-04-19T01:34:10.780Z,11.5
2019-04-19T01:35:11.713Z,11.4
2019-04-19T01:36:06.389Z,11.3
2019-04-19T01:37:11.119Z,11.8
2019-04-19T01:38:08.393Z,11.8
2019-04-19T01:39:21.481Z,11.5
2019-04-19T01:40:20.906Z,11.4
2019-04-19T01:41:20.412Z,11.2
2019-04-19T01:42:24.446Z,11.6
2019-04-19T01:43:23.390Z,11.7
2019-04-19T01:44:27.495Z,11.7
2019-04-19T01:45:19.869Z,11.9
2019-04-19T01:46:20.951Z,11.8
2019-04-19T01:47:27.655Z,11.4
2019-04-19T01:48:28.003Z,11.2
2019-04-19T01:49:17.799Z,11.9
2019-04-19T01:50:16.967Z,10.9
2019-04-19T01:51:19.837Z,10.9
2019-04-19T01:52:29.806Z,11.8
2019-04-19T01:53:24.024Z,11.5
2019-04-19T01:54:21.658Z,11.2
2019-04-19T01:55:14.775Z,12.2
2019-04-19T01:56:10.697Z,11.1
2019-04-19T01:57:09.659Z,11.1
2019-04-19T01:58:11.103Z,12.2
2019-04-19T01:59:07.766Z,11.7
2019-04-19T02:00:08.558Z,11.9
2019-04-19T02:01:12.125Z,11.5
2019-04-19T02:02:12.541Z,11.2
2019-04-19T02:03:08.145Z,11.4
2019-04-19T02:04:12.075Z,11.5
2019-04-19T02:05:11.257Z,10.9
2019-04-19T02:06:10.778Z,11.4
2019-04-19T02:07:12.391Z,11.6
2019-04-19T02:08:10.025Z,11.3
2019-04-19T02:09:06.991Z,10.9
2019-04-19T02:10:15.230Z,11.2
2019-04-19T02:11:18.436Z,11.3
2019-04-19T02:12:22.054Z,11.5
2019-04-19T02:13:16.699Z,12.2
2019-04-19T02:14:13.409Z,12.5
2019-04-19T02:15:11.639Z,12.3
2019-04-19T02:16:12.485Z,12.4
2019-04-19T02:17:11.327Z,11.6
2019-04-19T02:18:07.161Z,11.2
2019-04-19T02:19:12.261Z,11.8
2019-04-19T02:20:09.043Z,11.6
2019-04-19T02:21:07.088Z,11.9
2019-04-19T02:22:14.204Z,12.4
2019-04-19T02:23:10.856Z,11.7
2019-04-19T02:24:07.525Z,11.7
2019-04-19T02:25:12.456Z,12.1
2019-04-19T02:26:10.496Z,11.7
2019-04-19T02:27:10.005Z,11.6
2019-04-19T02:28:08.856Z,11.3
2019-04-19T02:29:10.807Z,11.5
2019-04-19T02:30:13.830Z,11.6
2019-04-19T02:31:26.749Z,11.9
2019-04-19T02:33:28.873Z,10.5
2019-04-19T02:34:33.278Z,11.9
2019-04-19T02:35:28.960Z,12.2
2019-04-19T02:36:43.910Z,11.9
2019-04-19T02:37:31.329Z,11.5
2019-04-19T02:38:36.122Z,11.7
2019-04-19T02:39:37.674Z,12.1
2019-04-19T02:41:31.665Z,11.8
2019-04-19T02:43:43.041Z,11.5
2019-04-19T02:44:35.546Z,11.4
2019-04-19T02:45:27.799Z,12
2019-04-19T02:46:42.357Z,12
2019-04-19T02:48:15.838Z,12
2019-04-19T02:48:44.648Z,12.1
2019-04-19T02:49:42.701Z,12.2
2019-04-19T02:53:38.778Z,11.9
2019-04-19T02:54:33.391Z,11.8
2019-04-19T02:55:26.374Z,11.7
2019-04-19T02:56:35.642Z,11.3
2019-04-19T02:57:47.604Z,11
2019-04-19T02:58:32.121Z,11.6
2019-04-19T02:59:38.438Z,11.7
2019-04-19T03:01:37.668Z,11
2019-04-19T03:02:39.704Z,11.5
2019-04-19T03:03:26.927Z,11.6
2019-04-19T03:05:40.355Z,11.5
2019-04-19T03:06:21.449Z,11.3
2019-04-19T03:07:09.568Z,11.6
2019-04-19T03:08:08.318Z,11.9
2019-04-19T03:09:07.253Z,11.7
2019-04-19T03:10:12.632Z,11.7
2019-04-19T03:11:17.308Z,11.7
2019-04-19T03:12:31.586Z,11.8
2019-04-19T03:13:21.399Z,11.5
2019-04-19T03:14:20.444Z,12.4
2019-04-19T03:15:22.363Z,11.5
2019-04-19T03:16:31.030Z,11.8
2019-04-19T03:17:23.056Z,12.2
2019-04-19T03:19:17.991Z,11.6
2019-04-19T03:20:21.293Z,12
2019-04-19T03:21:24.940Z,11.7
2019-04-19T03:22:22.700Z,12.1
2019-04-19T03:24:18.584Z,12.3
2019-04-19T03:25:22.648Z,12
2019-04-19T03:26:25.037Z,11.4
2019-04-19T03:27:15.187Z,12.1
2019-04-19T03:28:18.218Z,11.7
2019-04-19T03:29:16.266Z,12.6
2019-04-19T03:30:22.974Z,12.3
2019-04-19T03:33:41.645Z,11.9
2019-04-19T03:34:40.443Z,12.2
2019-04-19T03:35:19.039Z,11.5
2019-04-19T03:36:24.437Z,11.5
2019-04-19T03:37:23.754Z,11.5
2019-04-19T03:38:23.706Z,11.3
2019-04-19T03:39:29.023Z,11.5
2019-04-19T03:40:27.974Z,11.7
2019-04-19T03:41:39.996Z,11.1
2019-04-19T03:42:34.753Z,11.4
2019-04-19T03:43:31.209Z,11.6
2019-04-19T03:45:28.545Z,11.6
2019-04-19T03:46:18.404Z,11.1
2019-04-19T03:47:27.668Z,11.1
2019-04-19T03:48:26.889Z,11.1
2019-04-19T03:50:26.046Z,11.6
2019-04-19T03:51:23.185Z,11.3
2019-04-19T03:52:25.761Z,11.6
2019-04-19T03:53:30.709Z,10.9
2019-04-19T03:54:23.172Z,11.7
2019-04-19T03:55:23.751Z,11.4
2019-04-19T03:56:26.171Z,11.9
2019-04-19T03:57:22.869Z,11.2
2019-04-19T03:58:12.225Z,11.2
2019-04-19T03:59:09.401Z,11.1
2019-04-19T04:00:09.001Z,11.4
2019-04-19T04:01:08.705Z,11.3
2019-04-19T04:02:09.736Z,11.2
2019-04-19T04:03:19.425Z,11.3
2019-04-19T04:04:16.327Z,11.1
2019-04-19T04:05:12.936Z,10.9
2019-04-19T04:06:12.313Z,11.8
2019-04-19T04:07:13.925Z,12.2
2019-04-19T04:08:16.173Z,12
2019-04-19T04:09:11.046Z,12.2
2019-04-19T04:10:13.883Z,11.6
2019-04-19T04:11:14.994Z,11.7
2019-04-19T04:12:24.711Z,11.9
2019-04-19T04:13:19.869Z,12.2
2019-04-19T04:14:21.619Z,11.6
2019-04-19T04:15:19.396Z,12
2019-04-19T04:16:20.506Z,11.9
2019-04-19T04:17:10.067Z,11.9
2019-04-19T04:18:09.134Z,11.8
2019-04-19T04:19:10.223Z,12.6
2019-04-19T04:20:09.982Z,11.7
2019-04-19T04:21:09.513Z,12.3
2019-04-19T04:22:14.881Z,11.7
2019-04-19T04:23:14.160Z,12.2
2019-04-19T04:24:18.948Z,11.5
2019-04-19T04:25:17.760Z,11.3
2019-04-19T04:26:14.717Z,11.6
2019-04-19T04:27:25.836Z,12
2019-04-19T04:28:26.002Z,11.2
2019-04-19T04:29:19.105Z,11.6
2019-04-19T04:30:20.285Z,11.3
2019-04-19T04:31:19.185Z,11.8
2019-04-19T04:32:19.384Z,11.1
2019-04-19T04:33:26.155Z,11.3
2019-04-19T04:34:26.785Z,11
2019-04-19T04:35:27.747Z,11.1
2019-04-19T04:36:29.724Z,11
2019-04-19T04:37:24.397Z,11.4
2019-04-19T04:38:18.364Z,11.1
2019-04-19T04:39:11.312Z,11.1
2019-04-19T04:40:10.477Z,10.9
2019-04-19T04:41:14.121Z,11.1
2019-04-19T04:42:19.917Z,11.2
2019-04-19T04:43:23.708Z,11.1
2019-04-19T04:44:25.492Z,11.4
2019-04-19T04:45:32.179Z,11.4
2019-04-19T04:46:32.361Z,11.7
2019-04-19T04:47:28.298Z,11.1
2019-04-19T04:48:31.752Z,11.3
2019-04-19T04:49:41.202Z,11.3
2019-04-19T04:50:36.792Z,11.6
2019-04-19T04:51:29.636Z,10.7
2019-04-19T04:52:18.747Z,11.3
2019-04-19T04:53:13.006Z,11.2
2019-04-19T04:54:12.357Z,11.2
2019-04-19T04:55:11.473Z,11.5
2019-04-19T04:56:12.476Z,11.3
2019-04-19T04:57:14.544Z,11.2
2019-04-19T04:58:19.393Z,11.3
2019-04-19T04:59:17.080Z,11
2019-04-19T05:00:13.809Z,11.6
2019-04-19T05:01:25.062Z,12.3
2019-04-19T05:02:25.839Z,11.4
2019-04-19T05:03:30.397Z,11.2
2019-04-19T05:04:26.842Z,11.1
2019-04-19T05:05:28.777Z,11.5
2019-04-19T05:06:29.190Z,11.5
2019-04-19T05:07:32.536Z,11.3
2019-04-19T05:08:29.341Z,12.4
2019-04-19T05:09:31.669Z,11.2
2019-04-19T05:10:27.833Z,11.9
2019-04-19T05:11:29.547Z,11.2
2019-04-19T05:12:46.026Z,10.7
2019-04-19T05:13:31.415Z,11.5
2019-04-19T05:14:31.247Z,11.1
2019-04-19T05:15:31.670Z,11.3
2019-04-19T05:16:37.632Z,11.3
2019-04-19T05:17:38.881Z,11.5
2019-04-19T05:18:29.219Z,11.9
2019-04-19T05:19:40.238Z,11.2
2019-04-19T05:20:31.372Z,11.5
2019-04-19T05:21:31.831Z,11.7
2019-04-19T05:22:26.338Z,11.4
2019-04-19T05:23:31.599Z,13.8
2019-04-19T05:24:44.109Z,11.4
2019-04-19T05:26:38.486Z,11.5
2019-04-19T05:27:38.768Z,11.1
2019-04-19T05:28:33.146Z,10.8
2019-04-19T05:29:26.351Z,11.3
2019-04-19T05:30:17.251Z,11.2
2019-04-19T05:31:22.451Z,11
2019-04-19T05:32:22.990Z,10.7
2019-04-19T05:33:27.343Z,11
2019-04-19T05:34:36.036Z,11.1
2019-04-19T05:35:29.447Z,11.4
2019-04-19T05:36:34.178Z,11
2019-04-19T05:37:34.987Z,10.7
2019-04-19T05:38:42.141Z,11.2
2019-04-19T05:39:36.862Z,11.2
2019-04-19T05:40:32.432Z,11
2019-04-19T05:41:29.566Z,11.3
2019-04-19T05:42:34.117Z,11.5
2019-04-19T05:43:51.125Z,11.4
2019-04-19T05:44:38.339Z,11.5
2019-04-19T05:45:42.568Z,11.2
2019-04-19T05:46:41.483Z,10.8
2019-04-19T05:47:29.167Z,11.4
2019-04-19T05:48:30.316Z,11.8
2019-04-19T05:49:32.347Z,11.4
2019-04-19T05:50:35.521Z,11.1
2019-04-19T05:51:38.464Z,11.5
2019-04-19T05:52:38.202Z,11.3
2019-04-19T05:53:27.644Z,11.4
2019-04-19T05:54:20.343Z,11.3
2019-04-19T05:55:19.419Z,11.5
2019-04-19T05:56:19.981Z,11.2
2019-04-19T05:57:35.726Z,11.7
2019-04-19T05:58:24.945Z,11.3
2019-04-19T05:59:31.514Z,11.6
2019-04-19T06:00:33.843Z,11.4
2019-04-19T06:01:35.956Z,10.9
2019-04-19T06:02:28.221Z,11.4
2019-04-19T06:03:26.949Z,11.2
2019-04-19T06:04:36.636Z,11.7
2019-04-19T06:05:42.109Z,10.8
2019-04-19T06:06:41.914Z,11.5
2019-04-19T06:07:34.245Z,11.4
2019-04-19T06:08:26.402Z,11.2
2019-04-19T06:09:21.781Z,11.1
2019-04-19T06:10:21.311Z,11.4
2019-04-19T06:11:26.438Z,11.3
2019-04-19T06:12:25.052Z,11.2
2019-04-19T06:13:21.900Z,11.6
2019-04-19T06:14:44.700Z,11.5
2019-04-19T06:15:42.735Z,11
2019-04-19T06:16:34.886Z,11.7
2019-04-19T06:17:36.425Z,11.7
2019-04-19T06:18:34.973Z,11.1
2019-04-19T06:19:34.897Z,11.5
2019-04-19T06:20:37.911Z,11.7
2019-04-19T06:21:36.508Z,11.9
2019-04-19T06:22:38.408Z,11.2
2019-04-19T06:23:43.753Z,11.4
2019-04-19T06:24:42.240Z,11.3
2019-04-19T06:25:50.371Z,11.1
2019-04-19T06:27:49.282Z,11
2019-04-19T06:28:50.357Z,11.7
2019-04-19T06:29:49.069Z,11.8
2019-04-19T06:30:40.801Z,11.2
2019-04-19T06:31:45.960Z,11.9
2019-04-19T06:32:44.585Z,11.7
2019-04-19T06:33:41.286Z,11.1
2019-04-19T06:34:39.852Z,10.6
2019-04-19T06:35:29.267Z,12.5
2019-04-19T06:36:25.155Z,11.2
2019-04-19T06:37:26.565Z,12.1
2019-04-19T06:38:24.441Z,11.9
2019-04-19T06:39:24.619Z,11.6
2019-04-19T06:40:28.266Z,11.8
2019-04-19T06:41:26.489Z,11.3
2019-04-19T06:42:34.350Z,11.3
2019-04-19T06:43:38.430Z,11.3
2019-04-19T06:44:44.531Z,11.4
2019-04-19T06:45:34.240Z,11.2
2019-04-19T06:46:34.842Z,11.6
2019-04-19T06:47:32.355Z,11.3
2019-04-19T06:48:28.480Z,10.2
2019-04-19T06:49:27.689Z,11.5
2019-04-19T06:50:32.044Z,10.8
2019-04-19T06:51:33.227Z,10.9
2019-04-19T06:52:29.965Z,11.1
2019-04-19T06:53:29.002Z,10.4
2019-04-19T06:54:32.009Z,10.6
2019-04-19T06:55:31.450Z,10.7
2019-04-19T06:56:31.724Z,11.1
2019-04-19T06:57:30.437Z,10.5
2019-04-19T06:58:32.680Z,10.5
2019-04-19T06:59:41.779Z,10.4
2019-04-19T07:00:38.761Z,10.7
2019-04-19T07:01:35.260Z,11.2
2019-04-19T07:02:26.229Z,10.1
2019-04-19T07:03:25.656Z,10.9
2019-04-19T07:04:26.034Z,10.2
2019-04-19T07:05:36.874Z,10.5
2019-04-19T07:06:39.275Z,10.7
2019-04-19T07:07:47.719Z,10.5
2019-04-19T07:09:50.066Z,10.7
2019-04-19T07:10:49.916Z,10.5
2019-04-19T07:11:49.862Z,10.2
2019-04-19T07:12:45.093Z,10.2
2019-04-19T07:13:38.255Z,10.1
2019-04-19T07:14:29.894Z,10.7
2019-04-19T07:15:49.583Z,10.4
2019-04-19T07:16:43.905Z,10.2
2019-04-19T07:17:41.784Z,9.9
2019-04-19T07:18:39.068Z,10.5
2019-04-19T07:19:43.648Z,10.7
2019-04-19T07:20:42.165Z,10.7
2019-04-19T07:21:42.076Z,10.4
2019-04-19T07:22:41.122Z,10.3
2019-04-19T07:23:48.657Z,10.4
2019-04-19T07:24:49.384Z,10.5
2019-04-19T07:25:46.273Z,9.9
2019-04-19T07:26:46.660Z,10.3
2019-04-19T07:27:40.037Z,9.5
2019-04-19T07:28:32.331Z,10.4
2019-04-19T07:29:29.557Z,10.6
2019-04-19T07:30:28.773Z,10.2
2019-04-19T07:31:28.060Z,10.5
2019-04-19T07:32:36.009Z,10.4
2019-04-19T07:33:39.427Z,9.8
2019-04-19T07:34:41.814Z,10.7
2019-04-19T07:35:54.026Z,10
2019-04-19T07:36:44.266Z,10
2019-04-19T07:37:45.989Z,10.2
2019-04-19T07:38:53.225Z,10
2019-04-19T07:39:52.288Z,9.9
2019-04-19T07:40:48.461Z,10.7
2019-04-19T07:41:43.719Z,9.7
2019-04-19T07:42:43.528Z,10.1
2019-04-19T07:43:42.882Z,10.6
2019-04-19T07:44:37.180Z,9.5
2019-04-19T07:45:44.943Z,10.1
2019-04-19T07:46:49.861Z,9.6
2019-04-19T07:47:39.982Z,9.4
2019-04-19T07:48:30.757Z,9.6
2019-04-19T07:49:40.282Z,9.6
2019-04-19T07:50:42.258Z,9.2
2019-04-19T07:51:35.641Z,9.3
2019-04-19T07:52:40.923Z,9.5
2019-04-19T07:53:38.612Z,9.4
2019-04-19T07:54:33.588Z,9.4
2019-04-19T07:55:37.565Z,8.8
2019-04-19T07:56:43.937Z,9
2019-04-19T07:58:55.163Z,9.2
2019-04-19T07:59:54.314Z,9.3
2019-04-19T08:01:07.606Z,9.3
2019-04-19T08:02:54.349Z,9.3
2019-04-19T08:04:08.501Z,8.8
2019-04-19T08:05:54.157Z,9.6
2019-04-19T08:07:00.882Z,9.8
2019-04-19T08:08:15.665Z,9.1
2019-04-19T08:09:01.624Z,9.3
2019-04-19T08:09:58.396Z,9.3
2019-04-19T08:11:05.838Z,8.8
2019-04-19T08:12:59.245Z,9.5
2019-04-19T08:14:57.354Z,9.4
2019-04-19T08:15:59.092Z,9.7
2019-04-19T08:17:52.736Z,8.4
2019-04-19T08:27:41.135Z,8.5
2019-04-19T08:28:43.050Z,8.5
2019-04-19T08:29:43.652Z,8.3
2019-04-19T08:30:42.613Z,8.4
2019-04-19T08:31:34.446Z,8.7
2019-04-19T08:32:34.370Z,8.7
2019-04-19T08:33:33.708Z,8.5
2019-04-19T08:34:34.486Z,8.7
2019-04-19T08:35:39.653Z,8.5
2019-04-19T08:36:43.374Z,8.4
2019-04-19T08:37:39.901Z,8.8
2019-04-19T08:38:35.610Z,8.6
2019-04-19T08:39:48.883Z,8.2
2019-04-19T08:40:52.818Z,8.7
2019-04-19T08:41:53.151Z,8.2
2019-04-19T08:42:53.724Z,8.3
2019-04-19T08:43:50.608Z,8.1
2019-04-19T08:44:45.964Z,8.2
2019-04-19T08:45:36.330Z,8.7
2019-04-19T08:46:34.845Z,8.3
2019-04-19T08:47:42.236Z,8.1
2019-04-19T08:48:44.206Z,7.7
2019-04-19T08:49:40.459Z,7.6
2019-04-19T08:50:43.366Z,7.7
2019-04-19T08:51:38.871Z,8
2019-04-19T08:52:38.351Z,8.3
2019-04-19T08:53:49.152Z,8
2019-04-19T08:54:57.407Z,8.3
2019-04-19T08:55:54.083Z,8.5
2019-04-19T08:56:44.792Z,8.1
2019-04-19T08:57:37.789Z,8.5
2019-04-19T08:58:54.227Z,8.2
2019-04-19T08:59:58.961Z,9.1
2019-04-19T09:01:13.642Z,8.8
2019-04-19T09:01:55.654Z,9.2
2019-04-19T09:02:48.627Z,8.6
2019-04-19T09:03:56.822Z,9.2
2019-04-19T09:04:53.272Z,9.2
2019-04-19T09:06:10.630Z,9.5
2019-04-19T09:08:10.010Z,9.4
2019-04-19T09:08:53.131Z,9.9
2019-04-19T09:10:11.870Z,9.1
2019-04-19T09:10:55.613Z,9
2019-04-19T09:11:57.253Z,8.9
2019-04-19T09:13:06.669Z,9.4
2019-04-19T09:14:00.166Z,9.1
2019-04-19T09:14:56.135Z,9
2019-04-19T09:16:00.451Z,9.2
2019-04-19T09:17:00.959Z,9
2019-04-19T09:18:17.746Z,9.2
2019-04-19T09:19:01.867Z,9.3
2019-04-19T09:20:58.461Z,9.1
2019-04-19T09:21:51.806Z,8.6
2019-04-19T09:22:53.072Z,8.6
2019-04-19T09:23:48.280Z,8.4
2019-04-19T09:24:47.719Z,8.9
2019-04-19T09:25:48.653Z,8.9
2019-04-19T09:26:52.646Z,9.2
2019-04-19T09:27:58.197Z,9.1
2019-04-19T09:28:59.911Z,8.9
2019-04-19T09:29:58.310Z,8.5
2019-04-19T09:30:54.531Z,8.6
2019-04-19T09:31:48.121Z,8.3
2019-04-19T09:32:41.807Z,8.6
2019-04-19T09:33:42.705Z,8.4
2019-04-19T09:34:49.453Z,8.6
2019-04-19T09:35:49.403Z,9
2019-04-19T09:36:47.143Z,8.8
2019-04-19T09:37:53.472Z,8.6
2019-04-19T09:38:55.342Z,8.4
2019-04-19T09:39:52.173Z,8.1
2019-04-19T09:40:49.992Z,7.8
2019-04-19T09:41:46.030Z,7.9
2019-04-19T09:42:50.568Z,7.8
2019-04-19T09:43:54.216Z,7.3
2019-04-19T09:44:48.065Z,7.5
2019-04-19T09:45:42.742Z,7.9
2019-04-19T09:46:42.398Z,7.8
2019-04-19T09:47:42.456Z,7.4
2019-04-19T09:49:00.661Z,8
2019-04-19T09:49:57.904Z,7.2
2019-04-19T09:50:57.913Z,6.8
2019-04-19T09:51:58.574Z,7.2
2019-04-19T09:53:06.210Z,7.5
2019-04-19T09:54:06.749Z,7.3
2019-04-19T09:55:08.422Z,7.2
2019-04-19T09:56:01.370Z,7.3
2019-04-19T09:56:57.807Z,7.1
2019-04-19T09:58:05.656Z,7
2019-04-19T09:58:57.087Z,6.5
2019-04-19T09:59:45.738Z,6.7
2019-04-19T10:00:45.205Z,6.9
2019-04-19T10:01:49.797Z,6.8
2019-04-19T10:02:50.694Z,6.8
2019-04-19T10:03:49.058Z,6.2
2019-04-19T10:04:44.346Z,6.6
2019-04-19T10:05:44.581Z,6.9
2019-04-19T10:06:44.764Z,6.8
2019-04-19T10:07:43.398Z,6.5
2019-04-19T10:08:43.388Z,6.5
2019-04-19T10:09:47.006Z,6.4
2019-04-19T10:10:46.615Z,6
2019-04-19T10:11:46.134Z,6
2019-04-19T10:12:43.601Z,6.3
2019-04-19T10:13:44.047Z,5.6
2019-04-19T10:14:43.871Z,5.5
2019-04-19T10:15:43.718Z,5
2019-04-19T10:16:44.361Z,5.4
2019-04-19T10:17:44.641Z,5.4
2019-04-19T10:18:51.424Z,5.9
2019-04-19T10:19:44.994Z,5.9
2019-04-19T10:20:44.834Z,6
2019-04-19T10:21:45.424Z,6.1
2019-04-19T10:22:45.079Z,5.2
2019-04-19T10:23:44.078Z,5.9
2019-04-19T10:24:45.232Z,5.7
2019-04-19T10:25:47.634Z,5.6
2019-04-19T10:26:45.363Z,5.6
2019-04-19T10:27:45.521Z,5.2
2019-04-19T10:28:44.539Z,5.3
2019-04-19T10:29:47.037Z,5.7
2019-04-19T10:30:45.647Z,6
2019-04-19T10:31:45.337Z,5.9
2019-04-19T10:32:46.490Z,6.6
2019-04-19T10:33:52.978Z,5.9
2019-04-19T10:34:46.258Z,6.3
2019-04-19T10:35:45.484Z,6.6
2019-04-19T10:36:47.378Z,6.4
2019-04-19T10:37:46.257Z,6.1
2019-04-19T10:38:47.547Z,5.4
2019-04-19T10:39:47.631Z,5.3
2019-04-19T10:40:47.324Z,5.2
2019-04-19T10:41:45.937Z,5.7
2019-04-19T10:42:45.652Z,5.4
2019-04-19T10:43:58.443Z,4.9
2019-04-19T10:44:47.804Z,4.7
2019-04-19T10:45:47.786Z,4.4
2019-04-19T10:46:47.453Z,4.3
2019-04-19T10:47:49.805Z,4.3
2019-04-19T10:48:55.976Z,4.7
2019-04-19T10:49:53.228Z,4.9
2019-04-19T10:50:50.338Z,4.4
2019-04-19T10:51:47.141Z,4.4
2019-04-19T10:52:46.221Z,4.1
2019-04-19T10:53:46.603Z,4.1
2019-04-19T10:54:47.486Z,4.1
2019-04-19T10:55:47.234Z,4.5
2019-04-19T10:56:46.538Z,4.3
2019-04-19T10:57:47.320Z,4.3
2019-04-19T10:58:47.492Z,4.6
2019-04-19T10:59:46.444Z,4.5
2019-04-19T11:00:47.172Z,4.4
2019-04-19T11:01:47.879Z,4.5
2019-04-19T11:02:46.702Z,5.1
2019-04-19T11:03:47.017Z,4.7
2019-04-19T11:04:46.933Z,4.7
2019-04-19T11:05:47.347Z,5.1
2019-04-19T11:06:47.508Z,4.7
2019-04-19T11:07:47.739Z,4.9
2019-04-19T11:08:46.959Z,4.6
2019-04-19T11:09:46.945Z,4.5
2019-04-19T11:10:47.583Z,4.4
2019-04-19T11:11:47.627Z,5.1
2019-04-19T11:12:47.487Z,5.2
2019-04-19T11:13:48.044Z,4.6
2019-04-19T11:14:48.190Z,4.7
2019-04-19T11:15:48.629Z,4.4
2019-04-19T11:16:47.575Z,4.2
2019-04-19T11:17:48.146Z,4.4
2019-04-19T11:18:47.635Z,3.8
2019-04-19T11:20:00.302Z,3.7
2019-04-19T11:20:50.934Z,4.1
2019-04-19T11:21:49.749Z,4.2
2019-04-19T11:22:49.972Z,4.5
2019-04-19T11:23:49.436Z,4.2
2019-04-19T11:24:48.115Z,4.3
2019-04-19T11:25:49.202Z,4.5
2019-04-19T11:26:49.114Z,4.3
2019-04-19T11:27:51.156Z,4.4
2019-04-19T11:28:49.245Z,4.2
2019-04-19T11:29:48.125Z,4.4
2019-04-19T11:30:48.834Z,5.1
2019-04-19T11:31:48.182Z,5
2019-04-19T11:32:48.579Z,4.8
2019-04-19T11:33:48.854Z,5
2019-04-19T11:34:49.214Z,4.9
2019-04-19T11:35:49.613Z,4.9
2019-04-19T11:36:49.418Z,4.6
2019-04-19T11:37:49.473Z,4.9
2019-04-19T11:38:49.142Z,4.9
2019-04-19T11:39:48.760Z,5.2
2019-04-19T11:40:49.064Z,5.3
2019-04-19T11:41:49.252Z,4.8
2019-04-19T11:42:48.974Z,5.5
2019-04-19T11:43:49.451Z,5.7
2019-04-19T11:44:49.827Z,5.9
2019-04-19T11:45:48.553Z,6.2
2019-04-19T11:46:49.959Z,6.2
2019-04-19T11:47:49.125Z,6.2
2019-04-19T11:48:49.869Z,6
2019-04-19T11:49:49.858Z,6.2
2019-04-19T11:50:49.617Z,5.8
2019-04-19T11:51:49.783Z,5.9
2019-04-19T11:52:50.091Z,6.3
2019-04-19T11:53:50.329Z,6
2019-04-19T11:54:50.339Z,6.4
2019-04-19T11:55:49.244Z,6.4
2019-04-19T11:56:54.878Z,6.3
2019-04-19T11:57:50.377Z,7.1
2019-04-19T11:58:50.669Z,7.2
2019-04-19T11:59:53.014Z,7.2
2019-04-19T12:00:51.759Z,7.2
2019-04-19T12:01:50.041Z,7.3
2019-04-19T12:02:49.781Z,7.4
2019-04-19T12:03:50.093Z,7.9
2019-04-19T12:04:50.272Z,7.7
2019-04-19T12:05:50.360Z,7.6
2019-04-19T12:06:50.240Z,7.5
2019-04-19T12:07:50.507Z,7.9
2019-04-19T12:08:51.217Z,7.8
2019-04-19T12:09:50.363Z,8.2
2019-04-19T12:10:50.497Z,8.4
2019-04-19T12:11:50.580Z,7.9
2019-04-19T12:12:50.985Z,8.2
2019-04-19T12:13:50.318Z,8
2019-04-19T12:14:50.413Z,7.7
2019-04-19T12:15:50.718Z,7.7
2019-04-19T12:16:50.883Z,7.5
2019-04-19T12:17:50.774Z,7.7
2019-04-19T12:18:51.751Z,7.8
2019-04-19T12:19:57.086Z,7.7
2019-04-19T12:20:51.808Z,7.7
2019-04-19T12:21:53.666Z,8.2
2019-04-19T12:22:51.830Z,8.1
2019-04-19T12:23:50.889Z,7.8
2019-04-19T12:24:53.879Z,7.9
2019-04-19T12:25:51.894Z,8.1
2019-04-19T12:26:51.540Z,8.1
2019-04-19T12:27:51.856Z,8.1
2019-04-19T12:28:51.354Z,7.9
2019-04-19T12:29:53.572Z,8.1
2019-04-19T12:30:55.510Z,7.8
2019-04-19T12:31:54.216Z,7.9
2019-04-19T12:32:51.617Z,7.5
2019-04-19T12:33:51.550Z,7.7
2019-04-19T12:34:52.890Z,8.2
2019-04-19T12:35:52.984Z,8.2
2019-04-19T12:36:53.018Z,8.5
2019-04-19T12:37:53.593Z,8.6
2019-04-19T12:38:53.717Z,8.6
2019-04-19T12:39:52.842Z,8.1
2019-04-19T12:40:52.026Z,8.5
2019-04-19T12:41:52.239Z,8
2019-04-19T12:42:52.042Z,7.6
2019-04-19T12:43:51.976Z,8.2
2019-04-19T12:44:52.167Z,8
2019-04-19T12:45:53.514Z,7.6
2019-04-19T12:46:53.237Z,8.4
2019-04-19T12:47:53.145Z,7.8
2019-04-19T12:48:54.188Z,7.7
2019-04-19T12:49:59.234Z,9.9
2019-04-19T12:50:53.684Z,15.8
2019-04-19T12:51:52.747Z,10.7
2019-04-19T12:52:53.834Z,7.7
2019-04-19T12:53:54.136Z,7.8
2019-04-19T12:54:54.180Z,8.1
2019-04-19T12:55:54.225Z,8
2019-04-19T12:56:53.906Z,7.3
2019-04-19T12:57:54.139Z,7.6
2019-04-19T12:58:53.801Z,7.3
2019-04-19T12:59:53.908Z,7
2019-04-19T13:00:54.241Z,6.8
2019-04-19T13:01:57.787Z,6.4
2019-04-19T13:02:55.848Z,6.1
2019-04-19T13:03:54.884Z,6
2019-04-19T13:06:37.850Z,5.7
2019-04-19T13:06:52.382Z,5.6
2019-04-19T13:07:53.453Z,5.5
2019-04-19T13:08:51.433Z,5.1
2019-04-19T13:09:51.438Z,5.1
2019-04-19T13:10:51.452Z,5.4
2019-04-19T13:11:52.350Z,4.7
2019-04-19T13:12:53.689Z,4.5
2019-04-19T13:13:52.501Z,4.1
2019-04-19T13:14:51.468Z,4.6
2019-04-19T13:15:52.307Z,4.2
2019-04-19T13:16:52.501Z,4.5
2019-04-19T13:17:51.963Z,4.1
2019-04-19T13:18:52.131Z,4
2019-04-19T13:20:04.026Z,4.4
2019-04-19T13:20:52.914Z,3.9
2019-04-19T13:21:52.263Z,3.8
2019-04-19T13:22:52.581Z,3.7
2019-04-19T13:23:52.687Z,4
2019-04-19T13:24:52.233Z,3.6
2019-04-19T13:25:53.365Z,3.7
2019-04-19T13:26:53.242Z,3.3
2019-04-19T13:27:54.842Z,3.4
2019-04-19T13:28:53.476Z,3.1
2019-04-19T13:30:04.338Z,3.8
2019-04-19T13:30:57.103Z,3.3
2019-04-19T13:31:54.682Z,3.2
2019-04-19T13:32:54.348Z,3
2019-04-19T13:33:53.253Z,3.3
2019-04-19T13:34:52.597Z,3
2019-04-19T13:35:53.072Z,3.1
2019-04-19T13:36:53.287Z,2.9
2019-04-19T13:37:52.833Z,3
2019-04-19T13:38:53.010Z,3.2
2019-04-19T13:39:54.233Z,2.9
2019-04-19T13:40:53.837Z,3.1
2019-04-19T13:41:52.887Z,3.3
2019-04-19T13:42:55.628Z,3
2019-04-19T13:43:53.889Z,3.1
2019-04-19T13:44:53.060Z,3.1
2019-04-19T13:45:54.688Z,3.1
2019-04-19T13:46:53.084Z,3.1
2019-04-19T13:47:54.308Z,2.9
2019-04-19T13:48:54.581Z,3.1
2019-04-19T13:49:54.416Z,3.2
2019-04-19T13:50:54.146Z,3
2019-04-19T13:51:54.478Z,2.8
2019-04-19T13:52:53.199Z,2.8
2019-04-19T13:53:54.472Z,3
2019-04-19T13:54:54.673Z,3.3
2019-04-19T13:55:53.207Z,2.9
2019-04-19T13:56:53.207Z,2.8
2019-04-19T13:57:53.705Z,2.7
2019-04-19T13:58:53.771Z,2.9
2019-04-19T13:59:59.581Z,2.5
2019-04-19T14:00:54.546Z,2.5
2019-04-19T14:01:54.669Z,2.3
2019-04-19T14:02:53.892Z,2.4
2019-04-19T14:03:53.761Z,2.8
2019-04-19T14:04:53.770Z,2.8
2019-04-19T14:05:54.238Z,3.2
2019-04-19T14:06:56.067Z,3.3
2019-04-19T14:07:55.157Z,3.2
2019-04-19T14:08:53.845Z,3.1
2019-04-19T14:09:54.866Z,3.1
2019-04-19T14:10:55.097Z,3
2019-04-19T14:11:55.178Z,3.3